LSGG

Geneva Cointrin International Airport

Airport
ICAO code
LSGG
IATA Code
GVA
Summary
ICAO Region
EUR
ICAO Territory
Location

Meyrin, Geneve

Serving
Geneva
Elevation
1411 ft
Coordinates
46° 14' 17" N , 6° 6' 32" E
KCC
Metar
LSGG 231050Z AUTO 11005KT 070V180 9999 VCSH FEW065 BKN085 FEW///TCU 16/09 Q1017 NOSIG

Runways

Designator Length Width Surface Rops
05L/23R 823 30 CAUTION: A No/No
5/23 3900 50 CON Yes/Yes

SKYbrary Partners:

Safety knowledge contributed by: